This is the latest recevied weather packets stored in our database for station/object DG4MJS-10. If no packets are shown the sender has not sent any weather packets the latest 10 day(s).
| Time | Temp. | Humidity | Pressure | Rain* | Wind** | Luminosity | Snow |
|---|---|---|---|---|---|---|---|
| 1777989612 | 17.22° C | 58% | 1006.8 hPa | - | - | - | - |
| 1777988712 | 17.22° C | 58% | 1007.1 hPa | - | - | - | - |
| 1777987812 | 17.22° C | 61% | 1007 hPa | - | - | - | - |
| 1777986912 | 17.22° C | 61% | 1006.9 hPa | - | - | - | - |
| 1777986012 | 17.78° C | 60% | 1007.2 hPa | - | - | - | - |
| 1777985112 | 18.33° C | 55% | 1007.2 hPa | - | - | - | - |
| 1777984212 | 18.33° C | 54% | 1007 hPa | - | - | - | - |
| 1777983312 | 17.78° C | 54% | 1006.8 hPa | - | - | - | - |
| 1777982412 | 17.78° C | 50% | 1006.8 hPa | - | - | - | - |
| 1777981511 | 16.67° C | 61% | 1006.8 hPa | - | - | - | - |
| 1777980611 | 17.22° C | 59% | 1006.8 hPa | - | - | - | - |
| 1777979711 | 17.78° C | 53% | 1006.9 hPa | - | - | - | - |
| 1777978811 | 17.22° C | 58% | 1007 hPa | - | - | - | - |
| 1777977911 | 16.67° C | 63% | 1007 hPa | - | - | - | - |
| 1777977011 | 16.67° C | 62% | 1007.1 hPa | - | - | - | - |
| 1777976113 | 16.67° C | 61% | 1007.3 hPa | - | - | - | - |
| 1777975212 | 17.22° C | 61% | 1007.5 hPa | - | - | - | - |
| 1777974312 | 17.22° C | 59% | 1007.7 hPa | - | - | - | - |
| 1777973412 | 16.67° C | 63% | 1007.9 hPa | - | - | - | - |
| 1777972512 | 16.67° C | 60% | 1007.9 hPa | - | - | - | - |
| 1777971612 | 16.67° C | 61% | 1008 hPa | - | - | - | - |
| 1777970712 | 16.67° C | 63% | 1008.2 hPa | - | - | - | - |
| 1777969812 | 16.11° C | 64% | 1008.2 hPa | - | - | - | - |
| 1777968912 | 16.11° C | 64% | 1008.4 hPa | - | - | - | - |
| 1777968012 | 16.11° C | 63% | 1008.4 hPa | - | - | - | - |
* Rain since midnight (hover to see other rain measurements)
** Current wind speed in m/s (hover to see current wind gust speed)